Time;durP1;ratioP1;P1;durP2;ratioP2;P2;SDS_P1;SDS_P2;PMS_P1;PMS_P2;Temp;Humidity;BMP_temperature;BMP_pressure;BME280_temperature;BME280_humidity;BME280_pressure;Samples;Min_cycle;Max_cycle;Signal;HPM_P1;HPM_P2
2023/12/01 00:02:21;;;;;;;51.63;24.40;;;1.30;99.90;;;;;;5055848;28;20182;-67
2023/12/01 00:04:47;;;;;;;49.63;24.20;;;1.40;99.90;;;;;;5055836;28;20242;-66
2023/12/01 00:07:13;;;;;;;47.87;23.30;;;1.50;99.90;;;;;;5056175;28;20175;-67
2023/12/01 00:09:40;;;;;;;50.73;24.63;;;1.50;99.90;;;;;;5056024;28;20190;-67
2023/12/01 00:12:06;;;;;;;53.43;25.60;;;1.40;99.90;;;;;;5055883;28;20225;-67
2023/12/01 00:14:31;;;;;;;50.73;25.53;;;1.30;99.90;;;;;;5055927;28;20207;-67
2023/12/01 00:16:57;;;;;;;54.27;24.10;;;1.30;99.90;;;;;;5055905;28;20210;-67
2023/12/01 00:19:23;;;;;;;50.70;24.57;;;1.30;99.90;;;;;;5055766;28;20209;-66
2023/12/01 00:21:48;;;;;;;49.47;23.97;;;1.40;99.90;;;;;;5055773;28;20187;-67
2023/12/01 00:24:14;;;;;;;52.00;24.23;;;1.40;99.90;;;;;;5055639;28;20214;-67
2023/12/01 00:26:40;;;;;;;50.87;25.70;;;1.30;99.90;;;;;;5055658;28;20176;-67
2023/12/01 00:29:06;;;;;;;51.50;25.40;;;1.40;99.90;;;;;;5055663;28;20173;-69
2023/12/01 00:31:31;;;;;;;53.93;25.30;;;1.60;99.90;;;;;;5055567;28;20185;-67
2023/12/01 00:33:57;;;;;;;50.87;24.70;;;1.60;99.90;;;;;;5055509;28;20182;-67
2023/12/01 00:36:23;;;;;;;51.00;24.70;;;1.70;99.90;;;;;;5055585;28;20225;-67
2023/12/01 00:38:48;;;;;;;51.57;24.40;;;1.60;99.90;;;;;;5055182;28;20648;-67
2023/12/01 00:41:14;;;;;;;47.70;23.77;;;1.60;99.90;;;;;;5055131;28;20182;-67
2023/12/01 00:43:40;;;;;;;46.87;24.03;;;1.50;99.90;;;;;;5055385;28;20218;-67
2023/12/01 00:46:06;;;;;;;51.27;23.93;;;1.60;99.90;;;;;;5055454;28;20179;-67
2023/12/01 00:48:31;;;;;;;49.50;25.37;;;1.80;99.90;;;;;;5055380;28;20180;-67
2023/12/01 00:50:57;;;;;;;50.27;26.63;;;1.90;99.90;;;;;;5055249;28;20186;-67
2023/12/01 00:53:23;;;;;;;47.97;24.93;;;1.90;99.90;;;;;;5055162;28;20655;-67
2023/12/01 00:55:49;;;;;;;49.50;23.97;;;1.80;99.90;;;;;;5055235;28;20228;-67
2023/12/01 00:58:14;;;;;;;47.87;23.47;;;1.80;99.90;;;;;;5054681;28;20185;-67
2023/12/01 01:00:40;;;;;;;48.33;24.03;;;1.90;99.90;;;;;;5055036;28;20176;-67
2023/12/01 01:03:06;;;;;;;45.37;24.33;;;1.90;99.90;;;;;;5054812;28;20202;-67
2023/12/01 01:05:32;;;;;;;46.80;23.50;;;2.00;99.90;;;;;;5054609;28;20245;-67
2023/12/01 01:07:58;;;;;;;46.97;23.70;;;1.70;99.90;;;;;;5054835;28;20183;-66
2023/12/01 01:10:24;;;;;;;46.67;23.30;;;1.60;99.90;;;;;;5055118;28;20232;-67
2023/12/01 01:12:50;;;;;;;43.47;22.30;;;1.60;99.90;;;;;;5054747;28;20705;-67
2023/12/01 01:15:16;;;;;;;48.90;23.20;;;1.50;99.90;;;;;;5054710;28;20174;-67
2023/12/01 01:17:42;;;;;;;45.77;23.53;;;1.40;99.90;;;;;;5055029;28;20181;-67
2023/12/01 01:20:09;;;;;;;45.73;24.53;;;1.50;99.90;;;;;;5054659;28;20175;-67
2023/12/01 01:22:35;;;;;;;48.53;25.23;;;1.60;99.90;;;;;;5054701;28;20183;-67
2023/12/01 01:25:01;;;;;;;47.80;23.77;;;1.70;99.90;;;;;;5054536;28;20701;-67
2023/12/01 01:27:26;;;;;;;47.00;24.53;;;1.70;99.90;;;;;;5054487;28;20176;-67
2023/12/01 01:29:52;;;;;;;45.03;24.23;;;1.90;99.90;;;;;;5054477;28;20213;-67
2023/12/01 01:32:18;;;;;;;49.10;24.17;;;1.90;99.90;;;;;;5054482;28;20178;-67
2023/12/01 01:34:44;;;;;;;49.87;26.87;;;2.00;99.90;;;;;;5054365;28;20178;-67
2023/12/01 01:37:09;;;;;;;48.70;26.83;;;2.00;99.90;;;;;;5054253;28;20179;-67
2023/12/01 01:39:35;;;;;;;54.60;27.90;;;2.10;99.90;;;;;;5054299;28;20305;-67
2023/12/01 01:42:01;;;;;;;49.65;26.77;;;2.00;99.90;;;;;;5054268;28;20266;-67
2023/12/01 01:44:26;;;;;;;49.17;26.57;;;2.00;99.90;;;;;;5053906;28;20203;-67
2023/12/01 01:46:54;;;;;;;47.60;25.77;;;2.00;99.90;;;;;;5054096;28;20176;-67
2023/12/01 01:49:25;;;;;;;45.80;25.57;;;2.00;99.90;;;;;;5054051;28;20179;-67
2023/12/01 01:51:53;;;;;;;47.37;25.30;;;2.00;99.90;;;;;;5054119;28;20523;-67
2023/12/01 01:54:22;;;;;;;51.13;27.40;;;2.10;99.90;;;;;;5054032;28;20186;-67
2023/12/01 01:56:48;;;;;;;53.33;27.33;;;2.10;99.90;;;;;;5053891;28;20196;-67
2023/12/01 01:59:14;;;;;;;49.27;25.73;;;2.10;99.90;;;;;;5053942;28;20175;-67
2023/12/01 02:01:39;;;;;;;44.57;24.53;;;2.10;99.90;;;;;;5053877;28;20264;-67
2023/12/01 02:04:08;;;;;;;46.40;26.03;;;2.10;99.90;;;;;;5053586;28;20202;-66
2023/12/01 02:06:34;;;;;;;48.57;24.93;;;2.10;99.90;;;;;;5053882;28;20171;-64
2023/12/01 02:09:00;;;;;;;42.07;23.57;;;2.00;99.90;;;;;;5053827;28;20586;-67
2023/12/01 02:11:26;;;;;;;47.83;24.93;;;1.70;99.90;;;;;;5053002;28;20182;-67
2023/12/01 02:13:53;;;;;;;47.47;25.30;;;1.90;99.90;;;;;;5053876;28;20179;-67
2023/12/01 02:16:19;;;;;;;53.10;26.43;;;2.00;99.90;;;;;;5053539;28;20186;-67
2023/12/01 02:18:45;;;;;;;46.17;25.23;;;2.10;99.90;;;;;;5053669;28;20225;-67
2023/12/01 02:21:11;;;;;;;48.80;25.40;;;2.20;99.90;;;;;;5053847;28;20179;-67
2023/12/01 02:23:37;;;;;;;44.43;23.33;;;2.20;99.90;;;;;;5053648;28;20586;-67
2023/12/01 02:26:04;;;;;;;46.50;25.20;;;2.20;99.90;;;;;;5053511;28;20191;-67
2023/12/01 02:28:30;;;;;;;44.10;23.87;;;2.00;99.90;;;;;;5053478;28;20182;-67
2023/12/01 02:30:56;;;;;;;47.67;25.47;;;2.00;99.90;;;;;;5053463;28;20179;-67
2023/12/01 02:33:23;;;;;;;41.87;24.03;;;1.70;99.90;;;;;;5053404;28;20183;-64
2023/12/01 02:35:53;;;;;;;38.90;22.17;;;1.90;99.90;;;;;;5053431;28;20282;-67
2023/12/01 02:38:19;;;;;;;37.93;21.10;;;1.80;99.90;;;;;;5053769;28;20178;-67
2023/12/01 02:40:49;;;;;;;43.37;22.47;;;1.60;99.90;;;;;;5053397;28;20180;-67
2023/12/01 02:43:16;;;;;;;40.03;21.60;;;1.70;99.90;;;;;;5053253;28;20278;-67
2023/12/01 02:45:42;;;;;;;41.87;22.03;;;1.70;99.90;;;;;;5053370;28;20233;-67
2023/12/01 02:48:08;;;;;;;40.80;21.50;;;1.80;99.90;;;;;;5053508;28;20241;-67
2023/12/01 02:50:34;;;;;;;46.20;22.53;;;1.80;99.90;;;;;;5053239;28;20166;-66
2023/12/01 02:53:04;;;;;;;40.77;21.57;;;1.70;99.90;;;;;;5053269;28;20177;-67
2023/12/01 02:55:30;;;;;;;40.37;23.53;;;1.90;99.90;;;;;;5053255;28;20175;-67
2023/12/01 02:57:56;;;;;;;41.67;23.47;;;1.80;99.90;;;;;;5053320;28;20262;-67
2023/12/01 03:00:22;;;;;;;41.03;22.73;;;1.70;99.90;;;;;;5053120;28;20189;-67
2023/12/01 03:02:48;;;;;;;39.60;22.07;;;1.70;99.90;;;;;;5053079;28;20175;-67
2023/12/01 03:05:14;;;;;;;41.10;23.47;;;1.70;99.90;;;;;;5052778;28;20257;-67
2023/12/01 03:07:41;;;;;;;41.40;22.70;;;1.60;99.90;;;;;;5053052;28;20219;-67
2023/12/01 03:10:08;;;;;;;41.80;23.27;;;1.80;99.90;;;;;;5053112;28;20207;-67
2023/12/01 03:12:34;;;;;;;40.70;22.47;;;1.80;99.90;;;;;;5053072;28;20183;-67
2023/12/01 03:15:00;;;;;;;41.47;22.57;;;1.80;99.90;;;;;;5053013;28;20179;-67
2023/12/01 03:17:26;;;;;;;42.67;22.93;;;1.80;99.90;;;;;;5053847;28;20232;-67
2023/12/01 03:19:52;;;;;;;42.17;22.43;;;1.80;99.90;;;;;;5053004;28;20180;-68
2023/12/01 03:22:19;;;;;;;41.10;23.33;;;1.80;99.90;;;;;;5055214;28;20172;-67
2023/12/01 03:24:47;;;;;;;42.50;23.07;;;2.00;99.90;;;;;;5056737;28;20218;-67
2023/12/01 03:27:19;;;;;;;42.60;23.73;;;1.90;99.90;;;;;;5056816;28;20179;-67
2023/12/01 03:29:45;;;;;;;41.10;22.87;;;1.90;99.90;;;;;;5056788;28;20167;-68
2023/12/01 03:32:11;;;;;;;43.23;23.57;;;1.80;99.90;;;;;;5056691;28;20175;-67
2023/12/01 03:34:37;;;;;;;40.33;22.47;;;2.00;99.90;;;;;;5056580;28;20194;-67
2023/12/01 03:37:03;;;;;;;40.90;23.63;;;1.90;99.90;;;;;;5056673;28;20183;-67
2023/12/01 03:39:30;;;;;;;40.63;23.27;;;2.00;99.90;;;;;;5039107;28;20202;-67
2023/12/01 03:41:55;;;;;;;40.67;23.87;;;1.90;99.90;;;;;;5056552;28;20186;-68
2023/12/01 03:44:21;;;;;;;41.67;23.03;;;1.90;99.90;;;;;;5056462;28;20292;-67
2023/12/01 03:46:47;;;;;;;40.17;23.83;;;1.90;99.90;;;;;;5056427;28;20257;-67
2023/12/01 03:49:13;;;;;;;41.90;23.93;;;2.00;99.90;;;;;;5056376;28;20176;-67
2023/12/01 03:51:39;;;;;;;43.90;23.77;;;2.10;99.90;;;;;;5056369;28;20236;-67
2023/12/01 03:54:05;;;;;;;43.30;24.57;;;2.10;99.90;;;;;;5056180;28;20239;-67
2023/12/01 03:56:31;;;;;;;46.53;25.37;;;2.00;99.90;;;;;;5056231;28;20188;-67
2023/12/01 03:58:56;;;;;;;43.07;23.73;;;2.10;99.90;;;;;;5056258;28;20249;-67
2023/12/01 04:01:28;;;;;;;41.73;24.00;;;2.00;99.90;;;;;;5056147;28;20181;-66
2023/12/01 04:03:54;;;;;;;44.93;24.37;;;2.10;99.90;;;;;;5056232;28;20665;-67
2023/12/01 04:06:20;;;;;;;40.83;23.03;;;2.00;99.90;;;;;;5055714;28;20229;-68
2023/12/01 04:08:46;;;;;;;40.83;25.27;;;2.20;99.90;;;;;;5055780;28;20199;-67
2023/12/01 04:11:11;;;;;;;41.07;23.43;;;2.40;99.90;;;;;;5055962;28;20190;-66
2023/12/01 04:13:37;;;;;;;36.37;22.23;;;2.50;99.90;;;;;;5055938;28;20214;-67
2023/12/01 04:16:03;;;;;;;34.73;22.33;;;2.40;99.90;;;;;;5055802;28;20178;-67
2023/12/01 04:18:29;;;;;;;38.20;22.23;;;2.40;99.90;;;;;;5038058;28;20195;-67
2023/12/01 04:20:57;;;;;;;35.33;22.17;;;2.00;99.90;;;;;;5055764;28;20185;-67
2023/12/01 04:23:23;;;;;;;39.27;22.23;;;2.00;99.90;;;;;;5055555;28;20336;-66
2023/12/01 04:25:49;;;;;;;37.87;22.07;;;2.00;99.90;;;;;;5055728;28;20263;-67
2023/12/01 04:28:15;;;;;;;36.30;21.53;;;1.90;99.90;;;;;;5055658;28;20186;-67
2023/12/01 04:30:41;;;;;;;34.93;20.57;;;1.90;99.90;;;;;;5055672;28;20172;-67
2023/12/01 04:33:07;;;;;;;38.53;21.80;;;2.00;99.90;;;;;;5054535;28;20237;-67
2023/12/01 04:35:34;;;;;;;36.73;22.90;;;2.10;99.90;;;;;;5055533;28;20182;-68
2023/12/01 04:38:05;;;;;;;36.77;21.47;;;2.10;99.90;;;;;;5055432;28;20681;-67
2023/12/01 04:40:31;;;;;;;34.30;22.17;;;2.00;99.90;;;;;;5055503;28;20195;-68
2023/12/01 04:42:58;;;;;;;33.37;20.43;;;2.10;99.90;;;;;;5055208;28;20184;-67
2023/12/01 04:45:26;;;;;;;35.80;20.83;;;1.80;99.90;;;;;;5055371;28;20257;-67
2023/12/01 04:47:54;;;;;;;33.30;19.50;;;1.70;99.90;;;;;;5055354;28;20195;-67
2023/12/01 04:50:24;;;;;;;36.33;19.70;;;1.70;99.90;;;;;;5055245;28;20178;-68
2023/12/01 04:52:52;;;;;;;34.20;21.13;;;1.70;99.90;;;;;;5055337;28;20228;-67
2023/12/01 04:55:20;;;;;;;32.33;19.33;;;1.70;99.90;;;;;;5055077;28;20240;-68
2023/12/01 04:57:46;;;;;;;31.23;20.07;;;1.80;99.90;;;;;;5055039;28;20613;-67
2023/12/01 05:00:20;;;;;;;34.17;20.13;;;1.80;99.90;;;;;;5055031;28;20172;-67
2023/12/01 05:02:58;;;;;;;34.60;20.23;;;1.80;99.90;;;;;;5055014;28;20198;-67
2023/12/01 05:05:30;;;;;;;29.60;18.17;;;1.70;99.90;;;;;;5037113;28;20226;-67
2023/12/01 05:07:58;;;;;;;32.35;18.20;;;1.80;99.90;;;;;;5054960;28;20162;-67
2023/12/01 05:10:26;;;;;;;35.40;21.47;;;1.80;99.90;;;;;;5054896;28;20176;-67
2023/12/01 05:12:54;;;;;;;34.33;21.23;;;1.90;99.90;;;;;;5054730;28;20170;-67
2023/12/01 05:15:24;;;;;;;38.67;23.17;;;2.00;99.90;;;;;;5054703;28;20170;-67
2023/12/01 05:17:52;;;;;;;34.90;20.33;;;2.10;99.90;;;;;;5054749;28;20172;-67
2023/12/01 05:20:19;;;;;;;36.23;20.93;;;1.90;99.90;;;;;;5054740;28;20563;-68
2023/12/01 05:22:51;;;;;;;34.10;20.90;;;1.90;99.90;;;;;;5054634;28;20180;-67
2023/12/01 05:25:19;;;;;;;32.60;19.07;;;1.90;99.90;;;;;;5054597;28;20266;-67
2023/12/01 05:27:49;;;;;;;32.23;21.53;;;1.70;99.90;;;;;;5054548;28;20171;-67
2023/12/01 05:30:17;;;;;;;31.17;18.77;;;1.80;99.90;;;;;;5054512;28;20176;-67
2023/12/01 05:32:44;;;;;;;35.70;19.63;;;1.90;99.90;;;;;;5054439;28;20178;-67
2023/12/01 05:35:12;;;;;;;30.93;19.80;;;2.00;99.90;;;;;;5054261;28;20204;-66
2023/12/01 05:37:46;;;;;;;31.57;19.33;;;2.00;99.90;;;;;;5054298;28;20195;-67
2023/12/01 05:40:14;;;;;;;33.27;19.07;;;2.00;99.90;;;;;;5054333;28;20625;-68
2023/12/01 05:42:41;;;;;;;34.13;19.50;;;1.90;99.90;;;;;;5054211;28;20257;-67
2023/12/01 05:45:11;;;;;;;34.60;19.70;;;1.80;99.90;;;;;;5054037;28;20206;-67
2023/12/01 05:47:43;;;;;;;37.60;19.63;;;1.80;99.90;;;;;;5054093;28;20186;-67
2023/12/01 05:50:12;;;;;;;36.03;18.83;;;1.80;99.90;;;;;;5054066;28;20218;-67
2023/12/01 05:52:40;;;;;;;32.17;18.93;;;1.60;99.90;;;;;;5054023;28;20175;-67
2023/12/01 05:55:10;;;;;;;29.43;17.10;;;1.80;99.90;;;;;;5053973;28;20652;-67
2023/12/01 05:57:36;;;;;;;32.70;18.37;;;1.70;99.90;;;;;;5053965;28;20202;-67
2023/12/01 06:00:03;;;;;;;34.47;19.10;;;1.80;99.90;;;;;;5036052;28;20563;-66
2023/12/01 06:02:28;;;;;;;35.07;19.37;;;1.70;99.90;;;;;;5053857;28;20173;-63
2023/12/01 06:04:57;;;;;;;31.83;19.50;;;1.60;99.90;;;;;;5053682;28;20312;-63
2023/12/01 06:07:24;;;;;;;32.13;18.57;;;1.50;99.90;;;;;;5053605;28;20247;-63
2023/12/01 06:09:49;;;;;;;44.90;26.83;;;1.70;99.90;;;;;;5053767;28;20174;-63
2023/12/01 06:12:15;;;;;;;35.10;20.23;;;1.70;99.90;;;;;;5054023;28;20172;-66
2023/12/01 06:14:41;;;;;;;35.27;20.70;;;1.60;99.90;;;;;;5053731;28;20185;-66
2023/12/01 06:17:07;;;;;;;34.37;19.17;;;1.50;99.90;;;;;;5054226;28;20179;-66
2023/12/01 06:19:32;;;;;;;36.23;20.43;;;1.40;99.90;;;;;;5053338;28;20217;-66
2023/12/01 06:21:58;;;;;;;31.17;20.33;;;1.40;99.90;;;;;;5045064;28;20197;-66
2023/12/01 06:24:25;;;;;;;35.80;21.50;;;1.30;99.90;;;;;;5036420;28;20664;-66
2023/12/01 06:26:52;;;;;;;36.90;21.27;;;1.40;99.90;;;;;;5033796;28;20183;-66
2023/12/01 06:29:19;;;;;;;35.90;19.87;;;1.50;99.90;;;;;;5033850;28;20270;-66
2023/12/01 06:31:44;;;;;;;35.00;20.27;;;1.40;99.90;;;;;;5033892;28;20172;-66
2023/12/01 06:34:10;;;;;;;34.17;18.30;;;1.40;99.90;;;;;;5033497;28;20190;-63
2023/12/01 06:36:35;;;;;;;34.73;19.93;;;1.30;99.90;;;;;;5033499;28;20542;-66
2023/12/01 06:39:10;;;;;;;35.40;18.97;;;1.50;99.90;;;;;;5033619;28;20179;-66
2023/12/01 06:41:37;;;;;;;35.10;18.83;;;1.50;99.90;;;;;;5037964;28;20178;-65
2023/12/01 06:44:02;;;;;;;34.70;19.27;;;1.50;99.90;;;;;;5052682;28;20722;-66
2023/12/01 06:46:28;;;;;;;35.97;18.37;;;1.50;99.90;;;;;;5053167;28;20305;-67
2023/12/01 06:48:54;;;;;;;33.77;19.20;;;1.50;99.90;;;;;;5053342;28;20213;-66
2023/12/01 06:51:19;;;;;;;36.40;18.73;;;1.50;99.90;;;;;;5052684;28;20273;-66
2023/12/01 06:53:45;;;;;;;37.13;19.33;;;1.40;99.90;;;;;;5053308;28;20217;-66
2023/12/01 06:56:11;;;;;;;34.93;18.97;;;1.50;99.90;;;;;;5053448;28;20575;-65
2023/12/01 06:58:36;;;;;;;38.67;20.60;;;1.50;99.90;;;;;;5057835;28;20236;-65
2023/12/01 07:01:02;;;;;;;31.53;18.10;;;1.40;99.90;;;;;;5057687;28;20229;-66
2023/12/01 07:03:29;;;;;;;38.83;21.00;;;1.50;99.90;;;;;;5057373;28;20230;-65
2023/12/01 07:05:55;;;;;;;36.30;19.57;;;1.30;99.90;;;;;;5057126;28;20229;-65
2023/12/01 07:08:21;;;;;;;37.10;19.70;;;1.20;99.90;;;;;;5057269;28;20210;-66
2023/12/01 07:10:47;;;;;;;34.27;17.93;;;1.30;99.90;;;;;;5057105;28;20225;-64
2023/12/01 07:13:13;;;;;;;37.80;18.83;;;1.30;99.90;;;;;;5039390;28;20182;-65
2023/12/01 07:15:38;;;;;;;31.87;17.43;;;1.20;99.90;;;;;;5056816;28;20174;-65
2023/12/01 07:18:04;;;;;;;35.47;17.33;;;1.20;99.90;;;;;;5057235;28;20211;-65
2023/12/01 07:20:33;;;;;;;32.93;17.50;;;1.00;99.90;;;;;;5056641;28;20525;-65
2023/12/01 07:22:59;;;;;;;33.63;17.10;;;1.00;99.90;;;;;;5056438;28;20179;-65
2023/12/01 07:25:25;;;;;;;31.50;16.23;;;1.00;99.90;;;;;;5046242;28;20219;-65
2023/12/01 07:27:58;;;;;;;32.33;18.03;;;1.00;99.90;;;;;;5047229;28;20224;-65
2023/12/01 07:30:27;;;;;;;38.50;22.03;;;1.00;99.90;;;;;;5044895;28;20182;-65
2023/12/01 07:32:53;;;;;;;35.43;17.90;;;0.90;99.90;;;;;;5037345;28;20647;-65
2023/12/01 07:35:20;;;;;;;36.03;18.27;;;1.10;99.90;;;;;;5040804;28;20222;-66
2023/12/01 07:37:51;;;;;;;34.50;17.37;;;1.20;99.90;;;;;;5036824;28;20753;-65
2023/12/01 07:40:21;;;;;;;30.93;14.93;;;1.30;99.90;;;;;;5035989;28;20215;-65
2023/12/01 07:42:47;;;;;;;34.80;17.90;;;1.00;99.90;;;;;;5036423;28;20182;-67
2023/12/01 07:45:17;;;;;;;41.13;20.93;;;1.00;99.90;;;;;;5035185;28;20196;-64
2023/12/01 07:47:43;;;;;;;35.93;17.13;;;1.20;99.90;;;;;;5036460;28;20277;-65
2023/12/01 07:50:09;;;;;;;30.40;16.73;;;1.10;99.90;;;;;;5036088;28;20552;-65
2023/12/01 07:52:35;;;;;;;33.83;17.57;;;1.10;99.90;;;;;;5036403;28;20171;-67
2023/12/01 07:55:00;;;;;;;40.60;21.00;;;1.20;99.90;;;;;;5036387;28;20264;-64
2023/12/01 07:57:26;;;;;;;35.50;17.20;;;1.40;99.90;;;;;;5036230;28;20180;-64
2023/12/01 07:59:52;;;;;;;34.97;17.17;;;1.40;99.90;;;;;;5036660;28;20183;-64
2023/12/01 08:02:17;;;;;;;36.13;16.77;;;1.50;99.90;;;;;;5036261;28;20576;-67
2023/12/01 08:04:43;;;;;;;38.67;19.47;;;1.60;99.90;;;;;;5035578;28;20736;-66
2023/12/01 08:07:08;;;;;;;39.97;19.10;;;1.60;99.90;;;;;;5036012;28;20230;-66
2023/12/01 08:09:34;;;;;;;35.97;17.40;;;1.60;99.90;;;;;;5035098;28;20186;-66
2023/12/01 08:12:03;;;;;;;35.73;17.23;;;1.60;99.90;;;;;;5036047;28;20183;-66
2023/12/01 08:14:29;;;;;;;34.93;17.03;;;1.70;99.90;;;;;;5036273;28;20210;-66
2023/12/01 08:16:54;;;;;;;37.17;18.37;;;1.70;99.90;;;;;;5036084;28;20643;-66
2023/12/01 08:19:20;;;;;;;35.07;16.90;;;1.60;99.90;;;;;;5036292;28;20258;-67
2023/12/01 08:21:46;;;;;;;35.50;16.53;;;1.60;99.90;;;;;;5036112;28;20713;-65
2023/12/01 08:24:12;;;;;;;33.27;15.70;;;1.80;99.90;;;;;;5035461;28;20220;-66
2023/12/01 08:26:38;;;;;;;37.33;16.97;;;1.70;99.90;;;;;;5035485;28;20199;-66
2023/12/01 08:29:04;;;;;;;39.80;19.33;;;1.60;99.90;;;;;;5035736;28;20168;-67
2023/12/01 08:31:30;;;;;;;42.33;19.67;;;1.50;99.90;;;;;;5035715;28;20175;-67
2023/12/01 08:33:59;;;;;;;49.30;25.87;;;1.50;99.90;;;;;;5035567;28;20183;-66
2023/12/01 08:36:25;;;;;;;37.50;18.83;;;1.50;99.90;;;;;;5035761;28;20638;-66
2023/12/01 08:38:51;;;;;;;39.50;19.07;;;1.70;99.90;;;;;;5035534;28;20190;-66
2023/12/01 08:41:17;;;;;;;41.80;19.37;;;1.70;99.90;;;;;;5035696;28;20186;-66
2023/12/01 08:43:43;;;;;;;40.73;21.63;;;1.70;99.90;;;;;;5035691;28;20293;-66
2023/12/01 08:46:08;;;;;;;94.70;55.17;;;1.60;99.90;;;;;;5035381;28;20213;-65
2023/12/01 08:48:34;;;;;;;58.33;34.17;;;1.60;99.90;;;;;;5035012;28;20211;-64
2023/12/01 08:51:00;;;;;;;42.70;21.40;;;1.50;99.90;;;;;;5035313;28;20175;-65
2023/12/01 08:53:25;;;;;;;41.93;22.13;;;1.30;99.90;;;;;;5017261;28;20227;-65
2023/12/01 08:55:51;;;;;;;52.73;28.30;;;1.30;99.90;;;;;;5035234;28;20203;-65
2023/12/01 08:58:19;;;;;;;66.07;40.97;;;1.10;99.90;;;;;;5035489;28;20632;-66
2023/12/01 09:00:45;;;;;;;50.80;22.70;;;0.90;99.90;;;;;;5035220;28;20652;-66
2023/12/01 09:03:11;;;;;;;40.73;18.07;;;1.00;99.90;;;;;;5035208;28;20180;-65
2023/12/01 09:05:36;;;;;;;44.07;21.70;;;1.20;99.90;;;;;;5035033;28;20600;-65
2023/12/01 09:08:05;;;;;;;45.00;22.80;;;1.00;99.90;;;;;;5034988;28;20203;-65
2023/12/01 09:10:31;;;;;;;43.57;22.40;;;1.00;99.90;;;;;;5034854;28;20182;-65
2023/12/01 09:12:57;;;;;;;38.60;19.60;;;1.00;99.90;;;;;;5034922;28;20186;-65
2023/12/01 09:15:23;;;;;;;44.17;19.03;;;1.20;99.90;;;;;;5034906;28;20175;-65
2023/12/01 09:17:49;;;;;;;40.53;19.67;;;1.20;99.90;;;;;;5034871;28;20539;-66
2023/12/01 09:20:15;;;;;;;44.37;21.90;;;1.10;99.90;;;;;;5034451;28;20184;-66
2023/12/01 09:22:40;;;;;;;43.37;20.43;;;1.20;99.90;;;;;;5034447;28;20189;-66
2023/12/01 09:25:06;;;;;;;41.23;19.60;;;1.30;99.90;;;;;;5034657;28;20666;-66
2023/12/01 09:27:32;;;;;;;45.63;20.90;;;1.20;99.90;;;;;;5034551;28;20187;-66
2023/12/01 09:29:58;;;;;;;42.00;19.67;;;1.10;99.90;;;;;;5034736;28;20186;-64
2023/12/01 09:32:24;;;;;;;41.67;21.37;;;1.20;99.90;;;;;;5034620;28;20187;-66
2023/12/01 09:34:50;;;;;;;45.63;21.80;;;1.20;99.90;;;;;;5034405;28;20231;-66
2023/12/01 09:37:16;;;;;;;41.33;19.77;;;1.50;99.90;;;;;;5034312;28;20190;-66
2023/12/01 09:39:42;;;;;;;42.33;19.40;;;1.50;99.90;;;;;;5034088;28;20183;-66
2023/12/01 09:42:08;;;;;;;44.93;19.53;;;1.40;99.90;;;;;;5034421;28;20176;-66
2023/12/01 09:44:34;;;;;;;48.07;19.00;;;1.30;99.90;;;;;;5034008;28;20665;-66
2023/12/01 09:47:02;;;;;;;42.80;18.20;;;1.40;99.90;;;;;;5034245;28;20233;-66
2023/12/01 09:49:33;;;;;;;55.00;23.30;;;1.40;99.90;;;;;;5033940;28;20175;-67
2023/12/01 09:52:01;;;;;;;45.50;20.77;;;1.50;99.90;;;;;;5034203;28;20234;-65
2023/12/01 09:54:26;;;;;;;51.27;23.10;;;1.50;99.90;;;;;;5034093;28;20195;-66
2023/12/01 09:56:52;;;;;;;54.33;24.67;;;1.30;99.90;;;;;;5034118;28;20180;-66
2023/12/01 09:59:19;;;;;;;67.63;35.17;;;1.50;99.90;;;;;;5033853;28;20179;-66
2023/12/01 10:01:47;;;;;;;59.70;28.70;;;1.30;99.90;;;;;;5033738;28;20180;-66
2023/12/01 10:04:13;;;;;;;50.33;21.97;;;1.50;99.90;;;;;;5033711;28;20202;-66
2023/12/01 10:06:39;;;;;;;62.83;33.83;;;1.30;99.90;;;;;;5033965;28;20171;-66
2023/12/01 10:09:09;;;;;;;66.47;32.83;;;1.10;99.90;;;;;;5033976;28;20183;-67
2023/12/01 10:11:36;;;;;;;50.73;22.37;;;1.20;99.90;;;;;;5033909;28;20197;-66
2023/12/01 10:14:08;;;;;;;52.80;23.33;;;1.00;99.90;;;;;;5033781;28;20266;-66
2023/12/01 10:16:36;;;;;;;47.43;21.90;;;1.00;99.90;;;;;;5033775;28;20178;-66
2023/12/01 10:19:06;;;;;;;51.53;22.53;;;1.10;99.90;;;;;;5033676;28;20277;-66
2023/12/01 10:21:49;;;;;;;51.87;22.37;;;1.00;99.90;;;;;;5033707;28;20172;-66
2023/12/01 10:24:22;;;;;;;54.47;24.60;;;1.00;99.90;;;;;;5033564;28;20210;-67
2023/12/01 10:26:52;;;;;;;55.57;22.20;;;1.20;99.90;;;;;;5033565;28;20641;-67
2023/12/01 10:29:32;;;;;;;62.87;25.30;;;1.20;99.90;;;;;;5033868;28;20170;-66
2023/12/01 10:31:59;;;;;;;51.80;22.77;;;1.20;99.90;;;;;;5014800;28;20628;-65
2023/12/01 10:34:25;;;;;;;51.23;21.83;;;1.20;99.90;;;;;;5033553;28;20233;-66
2023/12/01 10:36:53;;;;;;;46.27;22.00;;;1.10;99.90;;;;;;5033489;28;20187;-66
2023/12/01 10:39:29;;;;;;;47.13;23.13;;;1.00;99.90;;;;;;5033478;28;20222;-66
2023/12/01 10:41:56;;;;;;;52.10;24.77;;;1.00;99.90;;;;;;5033503;28;20210;-66
2023/12/01 10:44:24;;;;;;;52.00;26.77;;;1.10;99.90;;;;;;5033334;28;20556;-64
2023/12/01 10:46:52;;;;;;;59.73;31.33;;;1.20;99.90;;;;;;5033265;28;20181;-66
2023/12/01 10:49:18;;;;;;;58.80;27.37;;;1.10;99.90;;;;;;5033318;28;20176;-66
2023/12/01 10:51:52;;;;;;;57.40;23.83;;;1.10;99.90;;;;;;5033426;28;20178;-66
2023/12/01 10:54:24;;;;;;;61.47;27.33;;;1.20;99.90;;;;;;5033389;28;20179;-66
2023/12/01 10:57:35;;;;;;;54.63;24.70;;;1.40;99.90;;;;;;5033362;28;20247;-66
2023/12/01 11:00:06;;;;;;;49.63;24.60;;;1.20;99.90;;;;;;5028376;28;20188;-66
2023/12/01 11:02:34;;;;;;;47.60;23.33;;;1.30;99.90;;;;;;5033352;28;20222;-67
2023/12/01 11:05:01;;;;;;;48.80;22.63;;;1.30;99.90;;;;;;5033137;28;20234;-67
2023/12/01 11:07:45;;;;;;;45.87;22.97;;;1.50;99.90;;;;;;5033265;28;20634;-67
2023/12/01 11:10:23;;;;;;;44.37;20.70;;;1.60;99.90;;;;;;5033039;28;20163;-66
2023/12/01 11:13:27;;;;;;;48.73;22.53;;;1.60;99.90;;;;;;5033245;28;20166;-66
2023/12/01 11:15:54;;;;;;;45.87;20.87;;;1.60;99.90;;;;;;4933500;29;20266;-66
2023/12/01 11:18:20;;;;;;;47.80;22.87;;;1.70;99.90;;;;;;4933640;29;20182;-66
2023/12/01 11:20:48;;;;;;;43.97;22.60;;;1.70;99.90;;;;;;4980974;28;20237;-66
2023/12/01 11:23:16;;;;;;;45.33;22.30;;;1.80;99.90;;;;;;5032995;28;20187;-66
2023/12/01 11:25:48;;;;;;;50.73;25.10;;;1.80;99.90;;;;;;5033051;28;20214;-66
2023/12/01 11:28:22;;;;;;;52.33;24.03;;;1.70;99.90;;;;;;5033109;28;20193;-67
2023/12/01 11:31:01;;;;;;;49.00;22.73;;;1.70;99.90;;;;;;5033131;28;20167;-66
2023/12/01 11:33:37;;;;;;;51.50;24.43;;;1.60;99.90;;;;;;5032847;28;20207;-67
2023/12/01 11:36:27;;;;;;;51.83;29.70;;;1.50;99.90;;;;;;5032532;28;20172;-66
2023/12/01 11:41:46;;;;;;;42.23;22.83;;;1.30;99.90;;;;;;5032529;28;20218;-66
2023/12/01 11:44:24;;;;;;;42.30;23.57;;;1.30;99.90;;;;;;5036009;28;20659;-66
2023/12/01 11:46:57;;;;;;;37.83;20.07;;;1.20;99.90;;;;;;5036226;28;20206;-66
2023/12/01 11:49:35;;;;;;;39.93;21.50;;;1.30;99.90;;;;;;5036118;28;20167;-66
2023/12/01 11:52:03;;;;;;;41.87;20.50;;;1.30;99.90;;;;;;5035959;28;20230;-66
2023/12/01 11:54:36;;;;;;;41.07;20.43;;;1.50;99.90;;;;;;5035912;28;20168;-67
2023/12/01 11:57:08;;;;;;;41.70;21.93;;;1.60;99.90;;;;;;5035610;28;20642;-66
2023/12/01 11:59:35;;;;;;;43.23;23.93;;;1.90;99.90;;;;;;5035920;28;20310;-65
2023/12/01 12:02:02;;;;;;;38.37;20.23;;;1.60;99.90;;;;;;5035698;28;20183;-66
2023/12/01 12:04:28;;;;;;;41.43;21.43;;;1.60;99.90;;;;;;5035195;28;20704;-66
2023/12/01 12:06:55;;;;;;;41.37;22.33;;;1.70;99.90;;;;;;5035391;28;20167;-66
2023/12/01 12:09:21;;;;;;;39.67;24.47;;;1.60;99.90;;;;;;5035566;28;20191;-66
2023/12/01 12:11:50;;;;;;;39.00;23.63;;;1.60;99.90;;;;;;5035586;28;20179;-66
2023/12/01 12:14:16;;;;;;;37.63;22.93;;;1.60;99.90;;;;;;5035519;28;20649;-66
2023/12/01 12:16:42;;;;;;;46.50;27.10;;;1.60;99.90;;;;;;5035388;28;20197;-66
2023/12/01 12:19:08;;;;;;;39.63;22.27;;;1.60;99.90;;;;;;5035611;28;20179;-66
2023/12/01 12:21:35;;;;;;;34.60;19.03;;;1.60;99.90;;;;;;5035457;28;20264;-66
2023/12/01 12:24:02;;;;;;;33.23;17.83;;;1.70;99.90;;;;;;5035364;28;20247;-66
2023/12/01 12:26:29;;;;;;;35.03;17.60;;;1.70;99.90;;;;;;5035468;28;20218;-66
2023/12/01 12:29:03;;;;;;;33.33;17.90;;;1.70;99.90;;;;;;5035477;28;20179;-66
2023/12/01 12:31:31;;;;;;;44.60;24.33;;;2.00;99.90;;;;;;5035440;28;20171;-66
2023/12/01 12:33:58;;;;;;;39.00;20.73;;;2.00;99.90;;;;;;5035353;28;20187;-66
2023/12/01 12:36:31;;;;;;;36.67;20.43;;;1.80;99.90;;;;;;5035425;28;20521;-66
2023/12/01 12:39:05;;;;;;;37.17;21.20;;;1.80;99.90;;;;;;5035420;28;20183;-66
2023/12/01 12:41:32;;;;;;;35.63;20.43;;;1.80;99.90;;;;;;5035169;28;20163;-66